createdAt,value
2018-10-17T00:01:44.755Z,12.83
2018-10-17T00:04:14.373Z,13.43
2018-10-17T00:06:43.569Z,13.90
2018-10-17T00:09:13.007Z,14.43
2018-10-17T00:11:42.173Z,15.40
2018-10-17T00:14:12.014Z,14.50
2018-10-17T00:16:41.029Z,14.60
2018-10-17T00:19:10.319Z,14.47
2018-10-17T00:21:39.298Z,13.70
2018-10-17T00:24:08.416Z,13.17
2018-10-17T00:26:37.530Z,14.10
2018-10-17T00:29:06.678Z,15.07
2018-10-17T00:31:35.685Z,14.07
2018-10-17T00:34:04.663Z,13.97
2018-10-17T00:36:33.656Z,13.33
2018-10-17T00:39:02.805Z,14.07
2018-10-17T00:41:32.337Z,14.20
2018-10-17T00:44:01.440Z,14.83
2018-10-17T00:46:30.418Z,13.37
2018-10-17T00:48:59.721Z,14.23
2018-10-17T00:51:28.906Z,13.77
2018-10-17T00:53:58.288Z,13.37
2018-10-17T00:56:27.207Z,13.67
2018-10-17T00:59:08.161Z,14.17
2018-10-17T01:01:37.783Z,14.23
2018-10-17T01:04:07.644Z,14.83
2018-10-17T01:06:37.107Z,15.33
2018-10-17T01:09:09.366Z,15.43
2018-10-17T01:11:38.892Z,15.90
2018-10-17T01:14:08.465Z,16.23
2018-10-17T01:16:37.579Z,16.17
2018-10-17T01:19:07.037Z,16.47
2018-10-17T01:21:36.522Z,16.93
2018-10-17T01:24:05.902Z,15.30
2018-10-17T01:26:35.310Z,15.43
2018-10-17T01:29:04.432Z,16.80
2018-10-17T01:31:33.476Z,15.40
2018-10-17T01:34:02.531Z,16.53
2018-10-17T01:36:31.608Z,15.93
2018-10-17T01:39:00.737Z,15.30
2018-10-17T01:41:29.754Z,16.00
2018-10-17T01:43:58.766Z,16.50
2018-10-17T01:46:28.140Z,15.23
2018-10-17T01:48:57.130Z,16.43
2018-10-17T01:51:26.570Z,16.37
2018-10-17T01:53:56.555Z,15.23
2018-10-17T01:56:25.537Z,17.00
2018-10-17T01:58:54.794Z,14.63
2018-10-17T02:01:23.877Z,15.70
2018-10-17T02:03:52.881Z,14.43
2018-10-17T02:06:21.844Z,14.03
2018-10-17T02:08:50.811Z,14.33
2018-10-17T02:11:20.072Z,14.27
2018-10-17T02:13:49.058Z,14.00
2018-10-17T02:16:18.116Z,15.60
2018-10-17T02:18:47.097Z,14.97
2018-10-17T02:21:16.115Z,15.87
2018-10-17T02:23:45.261Z,15.20
2018-10-17T02:26:14.272Z,15.40
2018-10-17T02:28:43.278Z,16.23
2018-10-17T02:31:12.263Z,16.30
2018-10-17T02:33:41.348Z,16.00
2018-10-17T02:36:10.339Z,15.97
2018-10-17T02:38:39.335Z,15.97
2018-10-17T02:41:08.375Z,16.33
2018-10-17T02:43:37.433Z,15.87
2018-10-17T02:46:07.015Z,15.93
2018-10-17T02:48:36.854Z,16.03
2018-10-17T02:51:06.003Z,15.67
2018-10-17T02:56:32.535Z,16.47
2018-10-17T03:01:45.782Z,14.00
2018-10-17T03:04:17.111Z,16.10
2018-10-17T03:06:49.438Z,16.63
2018-10-17T03:09:35.544Z,15.47
2018-10-17T03:12:08.128Z,14.93
2018-10-17T03:14:41.869Z,15.67
2018-10-17T03:19:55.899Z,15.10
2018-10-17T03:22:28.786Z,15.47
2018-10-17T03:25:06.643Z,15.37
2018-10-17T03:27:40.341Z,16.33
2018-10-17T03:30:12.089Z,14.83
2018-10-17T03:32:43.979Z,14.67
2018-10-17T03:35:15.370Z,15.03
2018-10-17T03:40:29.410Z,15.07
2018-10-17T03:43:00.916Z,14.43
2018-10-17T03:45:33.117Z,14.43
2018-10-17T03:48:04.808Z,14.60
2018-10-17T03:50:36.595Z,15.43
2018-10-17T03:53:10.411Z,15.57
2018-10-17T03:55:41.421Z,15.60
2018-10-17T03:58:14.121Z,14.90
2018-10-17T04:00:45.369Z,15.07
2018-10-17T04:03:16.967Z,15.53
2018-10-17T04:05:48.829Z,16.20
2018-10-17T04:08:20.748Z,16.03
2018-10-17T04:10:51.850Z,15.60
2018-10-17T04:13:26.179Z,16.03
2018-10-17T04:16:00.888Z,17.40
2018-10-17T04:18:33.877Z,15.93
2018-10-17T04:21:07.196Z,15.50
2018-10-17T04:23:39.669Z,15.90
2018-10-17T04:26:11.779Z,16.47
2018-10-17T04:28:50.476Z,16.97
2018-10-17T04:31:24.359Z,16.97
2018-10-17T04:34:14.194Z,16.07
2018-10-17T04:36:44.900Z,15.73
2018-10-17T04:39:16.467Z,15.67
2018-10-17T04:41:49.225Z,15.67
2018-10-17T04:44:21.169Z,15.13
2018-10-17T04:46:56.287Z,15.37
2018-10-17T04:49:27.751Z,16.03
2018-10-17T04:51:59.666Z,15.60
2018-10-17T04:54:31.808Z,16.27
2018-10-17T04:57:05.399Z,16.23
2018-10-17T04:59:42.627Z,15.77
2018-10-17T05:02:11.631Z,15.77
2018-10-17T05:04:41.021Z,16.80
2018-10-17T05:07:09.964Z,16.43
2018-10-17T05:09:38.964Z,15.37
2018-10-17T05:12:08.121Z,16.67
2018-10-17T05:14:37.202Z,16.17
2018-10-17T05:17:06.704Z,16.63
2018-10-17T05:19:35.699Z,16.90
2018-10-17T05:22:04.918Z,17.50
2018-10-17T05:24:33.955Z,16.40
2018-10-17T05:27:02.973Z,17.27
2018-10-17T05:29:31.914Z,16.00
2018-10-17T05:32:01.097Z,16.87
2018-10-17T05:34:30.080Z,16.90
2018-10-17T05:36:59.365Z,16.80
2018-10-17T05:39:28.673Z,16.30
2018-10-17T05:41:57.732Z,15.40
2018-10-17T05:44:27.001Z,16.07
2018-10-17T05:46:56.100Z,16.10
2018-10-17T05:49:25.088Z,16.10
2018-10-17T05:51:54.132Z,15.97
2018-10-17T05:54:23.158Z,16.00
2018-10-17T05:56:52.337Z,16.13
2018-10-17T05:59:21.346Z,16.27
2018-10-17T06:01:51.058Z,15.77
2018-10-17T06:04:20.224Z,16.67
2018-10-17T06:06:49.297Z,16.37
2018-10-17T06:09:18.466Z,16.73
2018-10-17T06:11:48.029Z,16.37
2018-10-17T06:14:17.829Z,17.30
2018-10-17T06:16:47.396Z,17.13
2018-10-17T06:19:16.721Z,16.43
2018-10-17T06:21:45.735Z,17.37
2018-10-17T06:24:14.792Z,16.17
2018-10-17T06:26:43.814Z,16.97
2018-10-17T06:29:17.200Z,18.07
2018-10-17T06:31:48.634Z,18.23
2018-10-17T06:34:20.794Z,17.77
2018-10-17T06:36:52.598Z,18.60
2018-10-17T06:39:25.029Z,18.77
2018-10-17T06:41:56.800Z,19.10
2018-10-17T06:44:28.196Z,18.53
2018-10-17T06:47:01.677Z,17.57
2018-10-17T06:49:33.451Z,18.77
2018-10-17T06:52:06.770Z,19.30
2018-10-17T06:54:38.316Z,19.07
2018-10-17T07:02:32.281Z,16.83
2018-10-17T07:05:04.959Z,18.63
2018-10-17T07:07:36.959Z,18.17
2018-10-17T07:10:09.390Z,17.80
2018-10-17T07:12:43.104Z,17.37
2018-10-17T07:15:14.592Z,18.83
2018-10-17T07:17:45.929Z,17.37
2018-10-17T07:20:17.550Z,18.10
2018-10-17T07:22:48.591Z,18.07
2018-10-17T07:25:18.019Z,18.37
2018-10-17T07:27:47.157Z,19.33
2018-10-17T07:30:18.080Z,17.90
2018-10-17T07:32:47.234Z,18.07
2018-10-17T07:35:16.371Z,18.27
2018-10-17T07:37:45.666Z,18.27
2018-10-17T07:40:14.771Z,17.10
2018-10-17T07:42:44.219Z,18.03
2018-10-17T07:45:13.679Z,17.70
2018-10-17T07:47:42.724Z,17.53
2018-10-17T07:50:12.281Z,17.73
2018-10-17T07:52:41.355Z,17.13
2018-10-17T07:55:12.243Z,15.77
2018-10-17T07:57:41.474Z,17.27
2018-10-17T08:00:12.830Z,16.07
2018-10-17T08:02:42.273Z,16.53
2018-10-17T08:05:11.670Z,16.40
2018-10-17T08:07:41.055Z,17.07
2018-10-17T08:10:11.200Z,16.57
2018-10-17T08:12:40.532Z,16.80
2018-10-17T08:15:10.327Z,16.80
2018-10-17T08:17:39.663Z,16.33
2018-10-17T08:20:10.535Z,17.47
2018-10-17T08:22:40.243Z,15.40
2018-10-17T08:25:11.317Z,16.03
2018-10-17T08:27:47.110Z,16.17
2018-10-17T08:30:16.776Z,16.07
2018-10-17T08:32:46.141Z,16.33
2018-10-17T08:35:15.585Z,15.97
2018-10-17T08:37:45.260Z,16.60
2018-10-17T08:40:14.017Z,15.50
2018-10-17T08:42:43.185Z,15.80
2018-10-17T08:45:12.395Z,15.93
2018-10-17T08:47:41.564Z,16.97
2018-10-17T08:50:11.033Z,15.87
2018-10-17T08:52:40.228Z,16.20
2018-10-17T08:55:09.945Z,14.47
2018-10-17T08:57:39.578Z,15.53
2018-10-17T09:00:14.539Z,15.23
2018-10-17T09:02:46.780Z,16.23
2018-10-17T09:05:18.196Z,15.43
2018-10-17T09:07:50.070Z,15.17
2018-10-17T09:13:14.061Z,15.47
2018-10-17T09:15:46.023Z,14.90
2018-10-17T09:18:19.595Z,14.93
2018-10-17T09:20:51.659Z,13.90
2018-10-17T09:23:22.691Z,14.40
2018-10-17T09:25:54.260Z,13.97
2018-10-17T09:28:25.721Z,14.27
2018-10-17T09:30:57.628Z,13.47
2018-10-17T09:33:29.315Z,13.50
2018-10-17T09:36:01.306Z,14.00
2018-10-17T09:38:32.457Z,13.13
2018-10-17T09:41:05.254Z,12.20
2018-10-17T09:43:37.088Z,12.57
2018-10-17T09:46:08.602Z,12.57
2018-10-17T09:48:39.945Z,12.50
2018-10-17T09:51:14.232Z,12.17
2018-10-17T09:53:45.969Z,12.90
2018-10-17T09:56:19.175Z,12.23
2018-10-17T09:58:52.907Z,12.13
2018-10-17T10:04:24.966Z,10.45
2018-10-17T10:06:57.366Z,10.70
2018-10-17T10:09:29.164Z,11.12
2018-10-17T10:11:59.875Z,11.35
2018-10-17T10:14:33.093Z,11.12
2018-10-17T10:17:05.561Z,11.57
2018-10-17T10:19:55.467Z,11.08
2018-10-17T10:22:42.566Z,10.82
2018-10-17T10:25:33.977Z,10.95
2018-10-17T10:28:23.176Z,10.78
2018-10-17T10:30:54.848Z,10.75
2018-10-17T10:33:26.198Z,10.68
2018-10-17T10:35:57.150Z,10.65
2018-10-17T10:38:30.739Z,11.08
2018-10-17T10:41:04.307Z,10.60
2018-10-17T10:43:35.471Z,9.50
2018-10-17T10:46:08.292Z,10.08
2018-10-17T10:48:43.919Z,10.95
2018-10-17T10:51:16.168Z,10.85
2018-10-17T10:53:46.797Z,9.98
2018-10-17T10:56:18.648Z,10.50
2018-10-17T10:58:54.040Z,10.60
2018-10-17T11:01:26.028Z,9.95
2018-10-17T11:03:58.946Z,9.93
2018-10-17T11:06:33.012Z,10.43
2018-10-17T11:12:07.345Z,10.30
2018-10-17T11:14:39.087Z,10.70
2018-10-17T11:17:16.708Z,9.98
2018-10-17T11:19:50.547Z,10.15
2018-10-17T11:22:23.066Z,10.28
2018-10-17T11:24:57.566Z,10.15
2018-10-17T11:27:32.946Z,9.95
2018-10-17T11:30:05.867Z,8.88
2018-10-17T11:32:38.793Z,9.55
2018-10-17T11:37:58.938Z,9.50
2018-10-17T11:40:33.085Z,9.03
2018-10-17T11:43:04.395Z,9.10
2018-10-17T12:51:44.902Z,8.58
2018-10-17T13:00:58.389Z,8.55
2018-10-17T13:03:34.291Z,8.35
2018-10-17T13:06:13.935Z,8.25
2018-10-17T13:25:46.279Z,8.48
2018-10-17T13:28:15.554Z,8.60
2018-10-17T13:30:44.967Z,8.13
2018-10-17T13:33:14.604Z,8.18
2018-10-17T13:35:44.073Z,8.50
2018-10-17T13:38:13.343Z,7.72
2018-10-17T13:40:42.696Z,7.83
2018-10-17T13:43:12.318Z,7.67
2018-10-17T13:45:41.796Z,7.85
2018-10-17T13:48:11.462Z,7.60
2018-10-17T13:50:41.356Z,7.65
2018-10-17T13:53:10.654Z,7.22
2018-10-17T13:55:39.900Z,7.97
2018-10-17T13:58:09.436Z,8.43
2018-10-17T14:00:38.633Z,7.30
2018-10-17T14:03:08.164Z,7.12
2018-10-17T14:05:37.715Z,7.03
2018-10-17T14:08:07.234Z,6.72
2018-10-17T14:10:36.408Z,6.70
2018-10-17T14:13:06.123Z,7.25
2018-10-17T14:15:35.612Z,6.85
2018-10-17T14:18:05.363Z,7.75
2018-10-17T14:20:35.006Z,6.97
2018-10-17T14:23:04.586Z,7.00
2018-10-17T14:25:34.695Z,7.58
2018-10-17T14:28:04.191Z,7.17
2018-10-17T14:30:33.813Z,6.70
2018-10-17T14:33:03.052Z,7.10
2018-10-17T14:35:32.584Z,7.05
2018-10-17T14:38:02.117Z,7.45
2018-10-17T14:40:31.262Z,7.22
2018-10-17T14:43:00.606Z,7.58
2018-10-17T14:45:29.736Z,7.50
2018-10-17T14:47:59.111Z,7.67
2018-10-17T14:50:28.696Z,7.33
2018-10-17T14:52:58.315Z,7.58
2018-10-17T14:55:27.787Z,8.38
2018-10-17T14:57:57.177Z,7.70
2018-10-17T15:00:26.870Z,7.50
2018-10-17T15:02:56.137Z,8.47
2018-10-17T15:05:25.483Z,7.77
2018-10-17T15:07:55.135Z,7.30
2018-10-17T15:10:24.627Z,7.07
2018-10-17T15:12:53.985Z,7.20
2018-10-17T15:15:23.326Z,7.50
2018-10-17T15:17:52.680Z,6.77
2018-10-17T15:20:21.953Z,6.47
2018-10-17T15:22:51.225Z,7.03
2018-10-17T15:25:20.718Z,7.43
2018-10-17T15:27:50.320Z,7.07
2018-10-17T15:30:19.868Z,7.20
2018-10-17T15:32:49.330Z,6.70
2018-10-17T15:35:18.680Z,8.10
2018-10-17T15:37:48.074Z,7.33
2018-10-17T15:40:17.265Z,7.00
2018-10-17T15:42:46.616Z,7.37
2018-10-17T15:45:16.121Z,6.80
2018-10-17T15:47:45.344Z,7.03
2018-10-17T15:50:14.695Z,6.13
2018-10-17T15:52:44.072Z,7.23
2018-10-17T15:55:13.470Z,7.47
2018-10-17T15:57:42.869Z,6.97
2018-10-17T16:00:12.796Z,6.50
2018-10-17T16:02:42.122Z,7.23
2018-10-17T16:05:12.233Z,7.23
2018-10-17T16:07:41.936Z,7.20
2018-10-17T16:10:11.175Z,7.20
2018-10-17T16:12:40.490Z,8.03
2018-10-17T16:15:09.949Z,6.97
2018-10-17T16:17:39.252Z,7.33
2018-10-17T16:20:11.104Z,6.73
2018-10-17T16:22:41.643Z,7.90
2018-10-17T16:25:10.835Z,8.60
2018-10-17T16:27:40.169Z,8.47
2018-10-17T16:30:11.598Z,8.57
2018-10-17T16:32:40.833Z,7.73
2018-10-17T16:35:10.325Z,8.67
2018-10-17T16:37:39.899Z,8.50
2018-10-17T16:40:10.127Z,8.83
2018-10-17T16:42:39.250Z,9.60
2018-10-17T16:45:09.736Z,10.50
2018-10-17T16:47:38.937Z,10.23
2018-10-17T16:50:08.310Z,10.43
2018-10-17T16:52:37.736Z,10.83
2018-10-17T16:55:08.014Z,10.87
2018-10-17T16:57:37.488Z,11.73
2018-10-17T17:00:08.279Z,10.23
2018-10-17T17:02:38.278Z,10.47
2018-10-17T17:05:11.760Z,11.47
2018-10-17T17:07:41.240Z,11.80
2018-10-17T17:10:16.878Z,12.47
2018-10-17T17:12:46.089Z,12.23
2018-10-17T17:15:15.276Z,12.87
2018-10-17T17:17:44.350Z,13.10
2018-10-17T17:20:13.490Z,12.53
2018-10-17T17:22:42.734Z,12.37
2018-10-17T17:25:11.989Z,13.03
2018-10-17T17:27:43.258Z,13.33
2018-10-17T17:30:14.980Z,12.63
2018-10-17T17:32:44.475Z,13.10
2018-10-17T17:35:17.007Z,12.63
2018-10-17T17:37:46.040Z,12.87
2018-10-17T17:40:30.939Z,13.33
2018-10-17T17:49:05.683Z,12.70
2018-10-17T17:54:46.323Z,14.00
2018-10-17T17:57:25.305Z,14.40
2018-10-17T17:59:59.974Z,14.23
2018-10-17T18:02:32.379Z,15.27
2018-10-17T18:05:01.834Z,14.10
2018-10-17T18:07:31.106Z,14.20
2018-10-17T18:10:00.324Z,16.23
2018-10-17T18:12:29.544Z,15.53
2018-10-17T18:14:58.654Z,16.17
2018-10-17T18:17:30.135Z,16.73
2018-10-17T18:20:00.217Z,16.70
2018-10-17T18:22:29.691Z,17.40
2018-10-17T18:24:58.779Z,17.23
2018-10-17T18:27:27.971Z,16.93
2018-10-17T18:29:59.081Z,18.23
2018-10-17T18:32:28.358Z,18.70
2018-10-17T18:34:57.621Z,18.47
2018-10-17T18:37:26.955Z,18.43
2018-10-17T18:39:56.082Z,19.03
2018-10-17T18:42:25.199Z,20.00
2018-10-17T18:44:54.397Z,20.00
2018-10-17T18:47:24.453Z,20.63
2018-10-17T18:49:53.751Z,20.60
2018-10-17T18:52:22.871Z,22.13
2018-10-17T18:55:07.106Z,23.63
2018-10-17T18:57:36.413Z,24.23
2018-10-17T19:00:11.115Z,25.90
2018-10-17T19:02:42.731Z,27.33
2018-10-17T19:05:11.865Z,28.87
2018-10-17T19:07:41.038Z,30.87
2018-10-17T19:10:10.097Z,31.43
2018-10-17T19:12:39.318Z,32.77
2018-10-17T19:15:08.580Z,33.70
2018-10-17T19:17:39.002Z,33.60
2018-10-17T19:20:08.203Z,36.20
2018-10-17T19:22:37.428Z,35.67
2018-10-17T19:25:08.670Z,37.87
2018-10-17T19:27:37.919Z,38.17
2018-10-17T19:30:08.393Z,38.33
2018-10-17T19:32:38.812Z,39.53
2018-10-17T19:35:10.024Z,41.07
2018-10-17T19:37:39.174Z,41.43
2018-10-17T19:40:09.615Z,40.97
2018-10-17T19:42:38.983Z,40.47
2018-10-17T19:45:09.419Z,39.77
2018-10-17T19:47:38.838Z,40.90
2018-10-17T19:50:08.835Z,42.47
2018-10-17T19:52:52.063Z,42.50
2018-10-17T19:55:29.352Z,43.80
2018-10-17T19:57:58.495Z,42.90
2018-10-17T20:00:27.848Z,43.90
2018-10-17T20:02:57.785Z,44.70
2018-10-17T20:05:27.059Z,43.83
2018-10-17T20:08:09.455Z,44.80
2018-10-17T20:10:38.558Z,46.97
2018-10-17T20:13:09.611Z,46.27
2018-10-17T20:15:39.185Z,46.47
2018-10-17T20:18:08.559Z,47.30
2018-10-17T20:20:37.666Z,47.33
2018-10-17T20:23:06.937Z,47.30
2018-10-17T20:25:36.199Z,49.30
2018-10-17T20:28:05.457Z,47.80
2018-10-17T20:30:34.905Z,47.33
2018-10-17T20:33:05.653Z,49.00
2018-10-17T20:35:34.749Z,47.70
2018-10-17T20:38:09.166Z,47.53
2018-10-17T20:40:38.311Z,47.50
2018-10-17T20:43:13.937Z,48.57
2018-10-17T20:45:43.170Z,49.90
2018-10-17T20:48:13.227Z,47.60
2018-10-17T20:50:43.820Z,48.27
2018-10-17T20:53:14.887Z,49.27
2018-10-17T20:55:49.700Z,47.47
2018-10-17T20:58:18.954Z,49.47
2018-10-17T21:00:47.959Z,47.50
2018-10-17T21:03:17.052Z,49.87
2018-10-17T21:05:46.150Z,49.07
2018-10-17T21:08:23.873Z,48.30
2018-10-17T21:10:59.428Z,50.57
2018-10-17T21:13:28.657Z,49.87
2018-10-17T21:16:16.958Z,48.83
2018-10-17T21:18:46.329Z,48.77
2018-10-17T21:21:31.808Z,50.07
2018-10-17T21:24:01.008Z,49.70
2018-10-17T21:26:30.137Z,35.00
2018-10-17T21:28:59.314Z,49.30
2018-10-17T21:31:28.422Z,48.57
2018-10-17T21:34:13.303Z,47.10
2018-10-17T21:36:42.415Z,46.40
2018-10-17T21:39:13.345Z,43.30
2018-10-17T21:41:42.729Z,33.13
2018-10-17T21:44:12.862Z,33.30
2018-10-17T21:49:34.345Z,31.70
2018-10-17T21:52:03.471Z,29.40
2018-10-17T21:54:32.631Z,26.60
2018-10-17T21:57:03.047Z,28.63
2018-10-17T21:59:32.198Z,26.20
2018-10-17T22:02:01.405Z,27.13
2018-10-17T22:04:30.820Z,28.67
2018-10-17T22:07:00.040Z,29.13
2018-10-17T22:09:29.276Z,29.33
2018-10-17T22:11:58.281Z,29.30
2018-10-17T22:17:34.976Z,30.10
2018-10-17T22:20:04.251Z,26.97
2018-10-17T22:22:34.057Z,28.00
2018-10-17T22:25:03.208Z,27.80
2018-10-17T22:27:32.230Z,28.07
2018-10-17T22:30:02.482Z,28.87
2018-10-17T22:32:31.596Z,28.77
2018-10-17T22:35:00.747Z,29.63
2018-10-17T22:37:32.107Z,28.40
2018-10-17T22:40:01.565Z,31.10
2018-10-17T22:42:30.666Z,30.10
2018-10-17T22:45:00.043Z,30.13
2018-10-17T22:47:30.397Z,29.03
2018-10-17T22:49:59.482Z,28.60
2018-10-17T22:52:28.604Z,30.10
2018-10-17T22:54:58.470Z,30.20
2018-10-17T22:57:27.588Z,37.80
2018-10-17T22:59:56.656Z,34.53
2018-10-17T23:02:25.831Z,30.90
2018-10-17T23:04:54.989Z,39.37
2018-10-17T23:07:24.086Z,33.37
2018-10-17T23:09:53.788Z,31.80
2018-10-17T23:12:22.854Z,42.07
2018-10-17T23:14:53.787Z,42.70
2018-10-17T23:17:24.649Z,39.30
2018-10-17T23:19:53.833Z,41.27
2018-10-17T23:22:24.584Z,42.03
2018-10-17T23:24:53.706Z,41.37
2018-10-17T23:27:23.949Z,37.57
2018-10-17T23:29:53.086Z,37.87
2018-10-17T23:32:22.261Z,38.00
2018-10-17T23:34:51.320Z,38.70
2018-10-17T23:37:20.448Z,40.57
2018-10-17T23:39:49.560Z,40.27
2018-10-17T23:42:18.660Z,42.57
2018-10-17T23:44:47.994Z,40.63
2018-10-17T23:47:17.175Z,44.43
2018-10-17T23:49:47.732Z,42.87
2018-10-17T23:52:17.080Z,43.60
2018-10-17T23:54:47.577Z,41.73
2018-10-17T23:57:17.754Z,43.43
2018-10-17T23:59:47.996Z,42.10
